sensor_id;sensor_type;location;lat;lon;timestamp;P1;durP1;ratioP1;P2;durP2;ratioP2
22849;SDS011;11591;44.792;10.358;2023-06-22T04:12:14;14.80;;;6.40;;
22849;SDS011;11591;44.792;10.358;2023-06-22T04:14:40;12.23;;;5.97;;
22849;SDS011;11591;44.792;10.358;2023-06-22T04:17:05;10.98;;;5.35;;
22849;SDS011;11591;44.792;10.358;2023-06-22T04:19:31;9.80;;;6.13;;
22849;SDS011;11591;44.792;10.358;2023-06-22T04:21:57;10.18;;;5.68;;
22849;SDS011;11591;44.792;10.358;2023-06-22T04:24:23;9.77;;;5.45;;
22849;SDS011;11591;44.792;10.358;2023-06-22T04:26:48;12.05;;;6.10;;
22849;SDS011;11591;44.792;10.358;2023-06-22T04:29:20;15.13;;;6.57;;
22849;SDS011;11591;44.792;10.358;2023-06-22T04:31:53;13.20;;;6.68;;
22849;SDS011;11591;44.792;10.358;2023-06-22T04:34:21;15.10;;;6.93;;
22849;SDS011;11591;44.792;10.358;2023-06-22T04:36:46;15.75;;;7.38;;
22849;SDS011;11591;44.792;10.358;2023-06-22T04:39:12;13.10;;;7.45;;
22849;SDS011;11591;44.792;10.358;2023-06-22T04:41:39;17.23;;;6.97;;
22849;SDS011;11591;44.792;10.358;2023-06-22T04:44:08;13.10;;;7.25;;
22849;SDS011;11591;44.792;10.358;2023-06-22T04:46:51;14.85;;;7.88;;
22849;SDS011;11591;44.792;10.358;2023-06-22T04:49:33;16.02;;;8.18;;
22849;SDS011;11591;44.792;10.358;2023-06-22T04:52:12;15.60;;;8.27;;
22849;SDS011;11591;44.792;10.358;2023-06-22T04:54:39;18.15;;;9.20;;
22849;SDS011;11591;44.792;10.358;2023-06-22T04:57:12;20.73;;;9.60;;
22849;SDS011;11591;44.792;10.358;2023-06-22T04:59:38;17.35;;;10.30;;
22849;SDS011;11591;44.792;10.358;2023-06-22T05:02:06;24.05;;;9.88;;
22849;SDS011;11591;44.792;10.358;2023-06-22T05:04:33;13.77;;;9.82;;
22849;SDS011;11591;44.792;10.358;2023-06-22T05:07:06;13.63;;;9.43;;
22849;SDS011;11591;44.792;10.358;2023-06-22T05:09:32;16.95;;;9.80;;
22849;SDS011;11591;44.792;10.358;2023-06-22T05:11:58;12.90;;;9.15;;
22849;SDS011;11591;44.792;10.358;2023-06-22T05:14:27;23.50;;;9.73;;
22849;SDS011;11591;44.792;10.358;2023-06-22T05:16:53;22.15;;;10.43;;
22849;SDS011;11591;44.792;10.358;2023-06-22T05:19:23;15.23;;;9.63;;
22849;SDS011;11591;44.792;10.358;2023-06-22T05:21:50;18.88;;;9.25;;
22849;SDS011;11591;44.792;10.358;2023-06-22T05:24:16;15.77;;;8.95;;
22849;SDS011;11591;44.792;10.358;2023-06-22T05:26:41;13.85;;;8.15;;
22849;SDS011;11591;44.792;10.358;2023-06-22T05:29:07;13.45;;;8.80;;
22849;SDS011;11591;44.792;10.358;2023-06-22T05:31:33;17.17;;;8.95;;
22849;SDS011;11591;44.792;10.358;2023-06-22T05:33:58;17.42;;;8.15;;
22849;SDS011;11591;44.792;10.358;2023-06-22T05:36:25;20.27;;;9.63;;
22849;SDS011;11591;44.792;10.358;2023-06-22T05:38:52;26.02;;;8.70;;
22849;SDS011;11591;44.792;10.358;2023-06-22T05:41:18;22.65;;;9.65;;
22849;SDS011;11591;44.792;10.358;2023-06-22T05:43:44;24.27;;;8.75;;
22849;SDS011;11591;44.792;10.358;2023-06-22T05:46:10;15.23;;;9.45;;
22849;SDS011;11591;44.792;10.358;2023-06-22T05:48:35;16.38;;;9.75;;
22849;SDS011;11591;44.792;10.358;2023-06-22T05:51:01;16.42;;;9.05;;
22849;SDS011;11591;44.792;10.358;2023-06-22T05:53:27;18.17;;;8.70;;
22849;SDS011;11591;44.792;10.358;2023-06-22T05:55:53;28.42;;;10.63;;
22849;SDS011;11591;44.792;10.358;2023-06-22T05:58:19;14.65;;;9.93;;
22849;SDS011;11591;44.792;10.358;2023-06-22T06:00:44;16.02;;;9.35;;
22849;SDS011;11591;44.792;10.358;2023-06-22T06:03:12;18.50;;;8.65;;
22849;SDS011;11591;44.792;10.358;2023-06-22T06:05:42;19.35;;;9.43;;
22849;SDS011;11591;44.792;10.358;2023-06-22T06:08:08;24.73;;;11.95;;
22849;SDS011;11591;44.792;10.358;2023-06-22T06:10:35;24.52;;;14.18;;
22849;SDS011;11591;44.792;10.358;2023-06-22T06:13:01;18.98;;;10.10;;
22849;SDS011;11591;44.792;10.358;2023-06-22T06:15:29;18.80;;;10.05;;
22849;SDS011;11591;44.792;10.358;2023-06-22T06:17:55;17.23;;;9.80;;
22849;SDS011;11591;44.792;10.358;2023-06-22T06:20:22;21.73;;;9.00;;
22849;SDS011;11591;44.792;10.358;2023-06-22T06:22:50;15.20;;;8.93;;
22849;SDS011;11591;44.792;10.358;2023-06-22T06:25:16;19.38;;;9.75;;
22849;SDS011;11591;44.792;10.358;2023-06-22T06:27:45;17.15;;;8.30;;
22849;SDS011;11591;44.792;10.358;2023-06-22T06:30:12;11.88;;;8.07;;
22849;SDS011;11591;44.792;10.358;2023-06-22T06:32:39;16.90;;;8.63;;
22849;SDS011;11591;44.792;10.358;2023-06-22T06:35:05;18.60;;;8.63;;
22849;SDS011;11591;44.792;10.358;2023-06-22T06:37:35;23.92;;;8.82;;
22849;SDS011;11591;44.792;10.358;2023-06-22T06:40:02;16.33;;;8.50;;
22849;SDS011;11591;44.792;10.358;2023-06-22T06:42:35;18.52;;;8.18;;
22849;SDS011;11591;44.792;10.358;2023-06-22T06:45:04;13.93;;;8.30;;
22849;SDS011;11591;44.792;10.358;2023-06-22T06:47:30;14.02;;;7.47;;
22849;SDS011;11591;44.792;10.358;2023-06-22T06:49:56;16.40;;;8.35;;
22849;SDS011;11591;44.792;10.358;2023-06-22T06:52:22;18.08;;;8.02;;
22849;SDS011;11591;44.792;10.358;2023-06-22T06:54:48;13.07;;;6.78;;
22849;SDS011;11591;44.792;10.358;2023-06-22T06:57:14;15.90;;;6.78;;
22849;SDS011;11591;44.792;10.358;2023-06-22T06:59:40;13.90;;;8.40;;
22849;SDS011;11591;44.792;10.358;2023-06-22T07:02:06;17.52;;;7.05;;
22849;SDS011;11591;44.792;10.358;2023-06-22T07:04:32;17.98;;;9.38;;
22849;SDS011;11591;44.792;10.358;2023-06-22T07:07:00;13.18;;;7.10;;
22849;SDS011;11591;44.792;10.358;2023-06-22T07:09:27;13.60;;;7.05;;
22849;SDS011;11591;44.792;10.358;2023-06-22T07:11:53;16.65;;;6.82;;
22849;SDS011;11591;44.792;10.358;2023-06-22T07:14:18;17.85;;;6.35;;
22849;SDS011;11591;44.792;10.358;2023-06-22T07:16:44;15.68;;;6.05;;
22849;SDS011;11591;44.792;10.358;2023-06-22T07:19:13;13.80;;;6.28;;
22849;SDS011;11591;44.792;10.358;2023-06-22T07:21:39;12.88;;;6.40;;
22849;SDS011;11591;44.792;10.358;2023-06-22T07:24:05;14.90;;;6.43;;
22849;SDS011;11591;44.792;10.358;2023-06-22T07:26:32;14.32;;;6.00;;
22849;SDS011;11591;44.792;10.358;2023-06-22T07:28:58;13.63;;;6.60;;
22849;SDS011;11591;44.792;10.358;2023-06-22T07:31:24;10.70;;;6.55;;
22849;SDS011;11591;44.792;10.358;2023-06-22T07:33:50;12.85;;;5.97;;
22849;SDS011;11591;44.792;10.358;2023-06-22T07:36:16;13.98;;;6.65;;
22849;SDS011;11591;44.792;10.358;2023-06-22T07:38:43;12.40;;;6.07;;
22849;SDS011;11591;44.792;10.358;2023-06-22T07:41:09;9.90;;;5.80;;
22849;SDS011;11591;44.792;10.358;2023-06-22T07:43:35;13.23;;;6.63;;
22849;SDS011;11591;44.792;10.358;2023-06-22T07:46:04;17.92;;;7.95;;
22849;SDS011;11591;44.792;10.358;2023-06-22T07:48:31;10.63;;;5.68;;
22849;SDS011;11591;44.792;10.358;2023-06-22T07:50:56;13.68;;;5.55;;
22849;SDS011;11591;44.792;10.358;2023-06-22T07:53:22;13.95;;;5.78;;
22849;SDS011;11591;44.792;10.358;2023-06-22T07:55:49;13.70;;;6.18;;
22849;SDS011;11591;44.792;10.358;2023-06-22T07:58:15;12.85;;;5.65;;
22849;SDS011;11591;44.792;10.358;2023-06-22T08:00:41;12.10;;;5.47;;
22849;SDS011;11591;44.792;10.358;2023-06-22T08:03:07;9.85;;;6.13;;
22849;SDS011;11591;44.792;10.358;2023-06-22T08:05:33;17.70;;;7.70;;
22849;SDS011;11591;44.792;10.358;2023-06-22T08:07:59;12.20;;;5.75;;
22849;SDS011;11591;44.792;10.358;2023-06-22T08:10:24;13.95;;;5.53;;
22849;SDS011;11591;44.792;10.358;2023-06-22T08:12:51;13.80;;;5.43;;
22849;SDS011;11591;44.792;10.358;2023-06-22T08:15:17;17.00;;;5.40;;
22849;SDS011;11591;44.792;10.358;2023-06-22T08:17:44;16.08;;;6.07;;
22849;SDS011;11591;44.792;10.358;2023-06-22T08:20:13;13.80;;;5.95;;
22849;SDS011;11591;44.792;10.358;2023-06-22T08:22:40;14.52;;;6.20;;
22849;SDS011;11591;44.792;10.358;2023-06-22T08:25:07;13.75;;;5.97;;
22849;SDS011;11591;44.792;10.358;2023-06-22T08:27:34;10.77;;;5.63;;
22849;SDS011;11591;44.792;10.358;2023-06-22T08:30:01;13.60;;;6.55;;
22849;SDS011;11591;44.792;10.358;2023-06-22T08:32:27;19.58;;;6.90;;
22849;SDS011;11591;44.792;10.358;2023-06-22T08:34:56;15.93;;;6.90;;
22849;SDS011;11591;44.792;10.358;2023-06-22T08:37:22;13.23;;;7.40;;
22849;SDS011;11591;44.792;10.358;2023-06-22T08:39:50;13.00;;;6.72;;
22849;SDS011;11591;44.792;10.358;2023-06-22T08:42:16;13.85;;;6.50;;
22849;SDS011;11591;44.792;10.358;2023-06-22T08:44:41;19.42;;;7.35;;
22849;SDS011;11591;44.792;10.358;2023-06-22T08:47:07;14.63;;;7.03;;
22849;SDS011;11591;44.792;10.358;2023-06-22T08:49:33;17.30;;;7.10;;
22849;SDS011;11591;44.792;10.358;2023-06-22T08:51:59;24.48;;;8.10;;
22849;SDS011;11591;44.792;10.358;2023-06-22T08:54:25;10.07;;;6.50;;
22849;SDS011;11591;44.792;10.358;2023-06-22T08:56:50;20.20;;;7.15;;
22849;SDS011;11591;44.792;10.358;2023-06-22T08:59:16;12.68;;;7.13;;
22849;SDS011;11591;44.792;10.358;2023-06-22T09:01:42;15.32;;;7.18;;
22849;SDS011;11591;44.792;10.358;2023-06-22T09:04:11;15.15;;;7.13;;
22849;SDS011;11591;44.792;10.358;2023-06-22T09:06:37;12.50;;;6.88;;
22849;SDS011;11591;44.792;10.358;2023-06-22T09:09:10;17.15;;;8.10;;
22849;SDS011;11591;44.792;10.358;2023-06-22T09:11:36;21.23;;;8.68;;
22849;SDS011;11591;44.792;10.358;2023-06-22T09:14:02;13.52;;;7.78;;
22849;SDS011;11591;44.792;10.358;2023-06-22T09:16:29;16.48;;;7.03;;
22849;SDS011;11591;44.792;10.358;2023-06-22T09:18:55;14.77;;;7.20;;
22849;SDS011;11591;44.792;10.358;2023-06-22T09:21:20;14.02;;;7.43;;
22849;SDS011;11591;44.792;10.358;2023-06-22T09:23:46;17.23;;;7.60;;
22849;SDS011;11591;44.792;10.358;2023-06-22T09:26:16;12.02;;;7.28;;
22849;SDS011;11591;44.792;10.358;2023-06-22T09:28:42;11.48;;;6.78;;
22849;SDS011;11591;44.792;10.358;2023-06-22T09:31:08;11.73;;;6.97;;
22849;SDS011;11591;44.792;10.358;2023-06-22T09:33:35;14.13;;;6.15;;
22849;SDS011;11591;44.792;10.358;2023-06-22T09:36:01;14.80;;;7.72;;
22849;SDS011;11591;44.792;10.358;2023-06-22T09:38:27;18.20;;;7.20;;
22849;SDS011;11591;44.792;10.358;2023-06-22T09:40:52;15.10;;;7.15;;
22849;SDS011;11591;44.792;10.358;2023-06-22T09:43:18;14.68;;;7.40;;
22849;SDS011;11591;44.792;10.358;2023-06-22T09:45:44;14.05;;;6.03;;
22849;SDS011;11591;44.792;10.358;2023-06-22T09:48:09;17.40;;;6.85;;
22849;SDS011;11591;44.792;10.358;2023-06-22T09:50:35;9.73;;;6.40;;
22849;SDS011;11591;44.792;10.358;2023-06-22T09:53:02;10.38;;;6.53;;
22849;SDS011;11591;44.792;10.358;2023-06-22T09:55:28;13.02;;;6.72;;
22849;SDS011;11591;44.792;10.358;2023-06-22T09:57:54;17.67;;;8.07;;
22849;SDS011;11591;44.792;10.358;2023-06-22T10:00:20;11.15;;;6.75;;
22849;SDS011;11591;44.792;10.358;2023-06-22T10:02:47;10.27;;;6.50;;
22849;SDS011;11591;44.792;10.358;2023-06-22T10:05:13;23.88;;;11.60;;
22849;SDS011;11591;44.792;10.358;2023-06-22T10:07:39;12.77;;;7.20;;
22849;SDS011;11591;44.792;10.358;2023-06-22T10:10:08;12.50;;;7.30;;
22849;SDS011;11591;44.792;10.358;2023-06-22T10:12:35;10.30;;;6.95;;
22849;SDS011;11591;44.792;10.358;2023-06-22T10:15:00;14.82;;;7.03;;
22849;SDS011;11591;44.792;10.358;2023-06-22T10:17:26;11.70;;;6.80;;
22849;SDS011;11591;44.792;10.358;2023-06-22T10:19:52;10.57;;;6.93;;
22849;SDS011;11591;44.792;10.358;2023-06-22T10:22:18;16.02;;;6.65;;
22849;SDS011;11591;44.792;10.358;2023-06-22T10:24:44;12.27;;;6.75;;
22849;SDS011;11591;44.792;10.358;2023-06-22T10:27:12;13.40;;;6.80;;
22849;SDS011;11591;44.792;10.358;2023-06-22T10:29:38;17.15;;;6.57;;
22849;SDS011;11591;44.792;10.358;2023-06-22T10:32:06;13.93;;;6.85;;
22849;SDS011;11591;44.792;10.358;2023-06-22T10:34:32;12.35;;;7.13;;
22849;SDS011;11591;44.792;10.358;2023-06-22T10:36:59;11.05;;;6.57;;
22849;SDS011;11591;44.792;10.358;2023-06-22T10:39:24;12.68;;;6.50;;
22849;SDS011;11591;44.792;10.358;2023-06-22T10:41:50;18.73;;;6.78;;
22849;SDS011;11591;44.792;10.358;2023-06-22T10:44:16;16.55;;;7.07;;
22849;SDS011;11591;44.792;10.358;2023-06-22T10:46:42;11.98;;;7.35;;
22849;SDS011;11591;44.792;10.358;2023-06-22T10:49:08;13.38;;;6.93;;
22849;SDS011;11591;44.792;10.358;2023-06-22T10:51:34;16.55;;;7.25;;
22849;SDS011;11591;44.792;10.358;2023-06-22T10:54:00;10.15;;;6.47;;
22849;SDS011;11591;44.792;10.358;2023-06-22T10:56:25;11.85;;;5.75;;
22849;SDS011;11591;44.792;10.358;2023-06-22T10:58:51;12.38;;;6.95;;
22849;SDS011;11591;44.792;10.358;2023-06-22T11:01:17;12.70;;;7.00;;
22849;SDS011;11591;44.792;10.358;2023-06-22T11:03:43;15.68;;;6.88;;
22849;SDS011;11591;44.792;10.358;2023-06-22T11:06:08;8.48;;;6.38;;
22849;SDS011;11591;44.792;10.358;2023-06-22T11:08:34;17.25;;;7.13;;
22849;SDS011;11591;44.792;10.358;2023-06-22T11:11:00;15.68;;;7.07;;
22849;SDS011;11591;44.792;10.358;2023-06-22T11:13:26;10.35;;;6.45;;
22849;SDS011;11591;44.792;10.358;2023-06-22T11:15:51;11.13;;;5.43;;
22849;SDS011;11591;44.792;10.358;2023-06-22T11:18:17;12.43;;;6.18;;
22849;SDS011;11591;44.792;10.358;2023-06-22T11:20:43;10.85;;;6.22;;
22849;SDS011;11591;44.792;10.358;2023-06-22T11:23:09;19.30;;;6.72;;
22849;SDS011;11591;44.792;10.358;2023-06-22T11:25:36;9.88;;;6.40;;
22849;SDS011;11591;44.792;10.358;2023-06-22T11:28:03;17.02;;;8.98;;
22849;SDS011;11591;44.792;10.358;2023-06-22T11:30:30;14.68;;;6.82;;
22849;SDS011;11591;44.792;10.358;2023-06-22T11:32:59;13.20;;;7.18;;
22849;SDS011;11591;44.792;10.358;2023-06-22T11:35:25;14.20;;;6.70;;
22849;SDS011;11591;44.792;10.358;2023-06-22T11:37:51;10.60;;;6.68;;
22849;SDS011;11591;44.792;10.358;2023-06-22T11:40:17;11.35;;;6.20;;
22849;SDS011;11591;44.792;10.358;2023-06-22T11:42:43;14.40;;;6.95;;
22849;SDS011;11591;44.792;10.358;2023-06-22T11:45:09;13.48;;;6.72;;
22849;SDS011;11591;44.792;10.358;2023-06-22T11:47:35;16.50;;;7.03;;
22849;SDS011;11591;44.792;10.358;2023-06-22T11:50:02;12.95;;;6.75;;
22849;SDS011;11591;44.792;10.358;2023-06-22T11:52:28;12.23;;;6.35;;
22849;SDS011;11591;44.792;10.358;2023-06-22T11:54:54;13.02;;;6.53;;
22849;SDS011;11591;44.792;10.358;2023-06-22T11:57:19;9.10;;;6.00;;
22849;SDS011;11591;44.792;10.358;2023-06-22T11:59:45;10.45;;;6.68;;
22849;SDS011;11591;44.792;10.358;2023-06-22T12:02:11;12.23;;;6.22;;
22849;SDS011;11591;44.792;10.358;2023-06-22T12:04:37;16.60;;;6.03;;
22849;SDS011;11591;44.792;10.358;2023-06-22T12:07:03;11.73;;;6.25;;
22849;SDS011;11591;44.792;10.358;2023-06-22T12:09:28;11.07;;;6.60;;
22849;SDS011;11591;44.792;10.358;2023-06-22T12:11:54;15.45;;;6.35;;
22849;SDS011;11591;44.792;10.358;2023-06-22T12:14:21;13.63;;;7.32;;
22849;SDS011;11591;44.792;10.358;2023-06-22T12:16:47;12.70;;;6.43;;
22849;SDS011;11591;44.792;10.358;2023-06-22T12:19:12;17.38;;;7.97;;
22849;SDS011;11591;44.792;10.358;2023-06-22T12:21:38;12.30;;;8.18;;
22849;SDS011;11591;44.792;10.358;2023-06-22T12:24:06;15.77;;;7.72;;
22849;SDS011;11591;44.792;10.358;2023-06-22T12:26:31;13.75;;;7.63;;
22849;SDS011;11591;44.792;10.358;2023-06-22T12:28:57;16.45;;;7.30;;
22849;SDS011;11591;44.792;10.358;2023-06-22T12:31:23;16.60;;;6.53;;
22849;SDS011;11591;44.792;10.358;2023-06-22T12:33:49;13.48;;;7.22;;
22849;SDS011;11591;44.792;10.358;2023-06-22T12:36:14;12.77;;;6.20;;
22849;SDS011;11591;44.792;10.358;2023-06-22T12:38:41;17.40;;;7.22;;
22849;SDS011;11591;44.792;10.358;2023-06-22T12:41:07;9.05;;;6.72;;
22849;SDS011;11591;44.792;10.358;2023-06-22T12:43:33;18.20;;;6.85;;
22849;SDS011;11591;44.792;10.358;2023-06-22T12:45:58;11.88;;;6.60;;
22849;SDS011;11591;44.792;10.358;2023-06-22T12:48:25;16.50;;;6.75;;
22849;SDS011;11591;44.792;10.358;2023-06-22T12:50:52;17.60;;;8.15;;
22849;SDS011;11591;44.792;10.358;2023-06-22T12:53:18;16.98;;;7.25;;
22849;SDS011;11591;44.792;10.358;2023-06-22T12:55:44;12.18;;;6.70;;
22849;SDS011;11591;44.792;10.358;2023-06-22T12:58:10;12.27;;;6.85;;
22849;SDS011;11591;44.792;10.358;2023-06-22T13:00:36;17.73;;;6.82;;
22849;SDS011;11591;44.792;10.358;2023-06-22T13:03:02;16.60;;;7.32;;
22849;SDS011;11591;44.792;10.358;2023-06-22T13:05:28;21.42;;;7.35;;
22849;SDS011;11591;44.792;10.358;2023-06-22T13:07:55;12.70;;;6.93;;
22849;SDS011;11591;44.792;10.358;2023-06-22T13:10:21;16.98;;;7.80;;
22849;SDS011;11591;44.792;10.358;2023-06-22T13:12:47;15.50;;;7.00;;
22849;SDS011;11591;44.792;10.358;2023-06-22T13:15:12;14.00;;;7.53;;
22849;SDS011;11591;44.792;10.358;2023-06-22T13:17:38;12.57;;;6.95;;
22849;SDS011;11591;44.792;10.358;2023-06-22T13:20:04;14.68;;;7.22;;
22849;SDS011;11591;44.792;10.358;2023-06-22T13:22:34;12.98;;;7.68;;
22849;SDS011;11591;44.792;10.358;2023-06-22T13:25:08;18.25;;;7.75;;
22849;SDS011;11591;44.792;10.358;2023-06-22T13:27:38;14.07;;;8.02;;
22849;SDS011;11591;44.792;10.358;2023-06-22T13:30:04;19.05;;;8.00;;
22849;SDS011;11591;44.792;10.358;2023-06-22T13:32:30;21.02;;;7.78;;
22849;SDS011;11591;44.792;10.358;2023-06-22T13:34:56;15.43;;;7.82;;
22849;SDS011;11591;44.792;10.358;2023-06-22T13:37:22;14.25;;;7.88;;
22849;SDS011;11591;44.792;10.358;2023-06-22T13:39:48;19.35;;;7.65;;
22849;SDS011;11591;44.792;10.358;2023-06-22T13:42:14;16.13;;;7.72;;
22849;SDS011;11591;44.792;10.358;2023-06-22T13:44:40;15.70;;;7.57;;
22849;SDS011;11591;44.792;10.358;2023-06-22T13:47:06;12.95;;;7.25;;
22849;SDS011;11591;44.792;10.358;2023-06-22T13:49:33;14.90;;;7.80;;
22849;SDS011;11591;44.792;10.358;2023-06-22T13:51:59;13.48;;;8.02;;
22849;SDS011;11591;44.792;10.358;2023-06-22T13:54:25;11.18;;;7.00;;
22849;SDS011;11591;44.792;10.358;2023-06-22T13:56:50;19.60;;;8.35;;
22849;SDS011;11591;44.792;10.358;2023-06-22T13:59:16;14.88;;;8.27;;
22849;SDS011;11591;44.792;10.358;2023-06-22T14:01:42;16.55;;;8.07;;
22849;SDS011;11591;44.792;10.358;2023-06-22T14:04:08;9.50;;;7.35;;
22849;SDS011;11591;44.792;10.358;2023-06-22T14:06:35;13.90;;;7.50;;
22849;SDS011;11591;44.792;10.358;2023-06-22T14:09:01;12.68;;;7.78;;
22849;SDS011;11591;44.792;10.358;2023-06-22T14:11:27;19.10;;;8.23;;
22849;SDS011;11591;44.792;10.358;2023-06-22T14:13:52;14.55;;;8.02;;
22849;SDS011;11591;44.792;10.358;2023-06-22T14:16:18;16.83;;;8.35;;
22849;SDS011;11591;44.792;10.358;2023-06-22T14:18:44;16.30;;;7.57;;
22849;SDS011;11591;44.792;10.358;2023-06-22T14:21:10;13.18;;;7.70;;
22849;SDS011;11591;44.792;10.358;2023-06-22T14:23:36;11.15;;;7.63;;
22849;SDS011;11591;44.792;10.358;2023-06-22T14:26:03;17.35;;;7.68;;
22849;SDS011;11591;44.792;10.358;2023-06-22T14:28:28;19.52;;;8.15;;
22849;SDS011;11591;44.792;10.358;2023-06-22T14:30:54;17.33;;;7.75;;
22849;SDS011;11591;44.792;10.358;2023-06-22T14:33:21;15.35;;;7.75;;
22849;SDS011;11591;44.792;10.358;2023-06-22T14:35:47;16.75;;;7.78;;
22849;SDS011;11591;44.792;10.358;2023-06-22T14:38:14;16.58;;;7.68;;
22849;SDS011;11591;44.792;10.358;2023-06-22T14:40:40;16.02;;;7.82;;
22849;SDS011;11591;44.792;10.358;2023-06-22T14:43:05;14.68;;;7.90;;
22849;SDS011;11591;44.792;10.358;2023-06-22T14:45:31;14.80;;;7.97;;
22849;SDS011;11591;44.792;10.358;2023-06-22T14:47:57;13.43;;;8.73;;
22849;SDS011;11591;44.792;10.358;2023-06-22T14:50:23;13.75;;;8.35;;
22849;SDS011;11591;44.792;10.358;2023-06-22T14:52:48;21.45;;;7.95;;
22849;SDS011;11591;44.792;10.358;2023-06-22T14:55:14;15.88;;;8.00;;
22849;SDS011;11591;44.792;10.358;2023-06-22T14:57:40;17.13;;;7.63;;
22849;SDS011;11591;44.792;10.358;2023-06-22T15:00:06;12.70;;;8.30;;
22849;SDS011;11591;44.792;10.358;2023-06-22T15:02:32;17.73;;;7.72;;
22849;SDS011;11591;44.792;10.358;2023-06-22T15:04:58;15.80;;;8.55;;
22849;SDS011;11591;44.792;10.358;2023-06-22T15:07:24;16.73;;;8.82;;
22849;SDS011;11591;44.792;10.358;2023-06-22T15:09:49;13.50;;;8.50;;
22849;SDS011;11591;44.792;10.358;2023-06-22T15:12:15;16.42;;;8.07;;
22849;SDS011;11591;44.792;10.358;2023-06-22T15:14:41;17.25;;;8.70;;
22849;SDS011;11591;44.792;10.358;2023-06-22T15:17:07;22.60;;;8.75;;
22849;SDS011;11591;44.792;10.358;2023-06-22T15:19:34;14.95;;;8.18;;
22849;SDS011;11591;44.792;10.358;2023-06-22T15:22:02;22.02;;;7.95;;
22849;SDS011;11591;44.792;10.358;2023-06-22T15:24:29;17.85;;;8.82;;
22849;SDS011;11591;44.792;10.358;2023-06-22T15:26:55;16.00;;;8.45;;
22849;SDS011;11591;44.792;10.358;2023-06-22T15:29:21;16.90;;;8.18;;
22849;SDS011;11591;44.792;10.358;2023-06-22T15:31:47;18.98;;;9.10;;
22849;SDS011;11591;44.792;10.358;2023-06-22T15:34:13;13.98;;;8.15;;
22849;SDS011;11591;44.792;10.358;2023-06-22T15:36:39;21.10;;;8.82;;
22849;SDS011;11591;44.792;10.358;2023-06-22T15:39:04;16.08;;;8.02;;
22849;SDS011;11591;44.792;10.358;2023-06-22T15:41:30;17.63;;;8.25;;
22849;SDS011;11591;44.792;10.358;2023-06-22T15:43:56;14.02;;;8.15;;
22849;SDS011;11591;44.792;10.358;2023-06-22T15:46:22;16.75;;;9.20;;
22849;SDS011;11591;44.792;10.358;2023-06-22T15:48:48;13.80;;;8.40;;
22849;SDS011;11591;44.792;10.358;2023-06-22T15:51:13;17.77;;;8.05;;
22849;SDS011;11591;44.792;10.358;2023-06-22T15:53:42;11.95;;;8.57;;
22849;SDS011;11591;44.792;10.358;2023-06-22T15:56:08;17.50;;;9.73;;
22849;SDS011;11591;44.792;10.358;2023-06-22T15:58:35;14.20;;;8.38;;
22849;SDS011;11591;44.792;10.358;2023-06-22T16:01:02;15.43;;;8.25;;
22849;SDS011;11591;44.792;10.358;2023-06-22T16:03:28;15.88;;;7.55;;
22849;SDS011;11591;44.792;10.358;2023-06-22T16:05:54;17.50;;;8.20;;
22849;SDS011;11591;44.792;10.358;2023-06-22T16:08:20;25.67;;;8.45;;
22849;SDS011;11591;44.792;10.358;2023-06-22T16:10:46;17.50;;;8.25;;
22849;SDS011;11591;44.792;10.358;2023-06-22T16:13:12;16.38;;;8.82;;
22849;SDS011;11591;44.792;10.358;2023-06-22T16:15:38;19.73;;;8.23;;
22849;SDS011;11591;44.792;10.358;2023-06-22T16:18:03;19.35;;;8.02;;
22849;SDS011;11591;44.792;10.358;2023-06-22T16:20:30;20.70;;;8.98;;
22849;SDS011;11591;44.792;10.358;2023-06-22T16:22:55;17.10;;;8.60;;
22849;SDS011;11591;44.792;10.358;2023-06-22T16:25:21;14.55;;;8.40;;
22849;SDS011;11591;44.792;10.358;2023-06-22T16:27:47;16.90;;;8.05;;
22849;SDS011;11591;44.792;10.358;2023-06-22T16:30:13;17.08;;;8.27;;
22849;SDS011;11591;44.792;10.358;2023-06-22T16:32:39;16.30;;;8.45;;
22849;SDS011;11591;44.792;10.358;2023-06-22T16:35:14;12.95;;;8.38;;
22849;SDS011;11591;44.792;10.358;2023-06-22T16:37:39;19.33;;;8.25;;
22849;SDS011;11591;44.792;10.358;2023-06-22T16:40:05;22.63;;;8.57;;
22849;SDS011;11591;44.792;10.358;2023-06-22T16:42:34;16.42;;;8.38;;
22849;SDS011;11591;44.792;10.358;2023-06-22T16:45:00;13.25;;;7.97;;
22849;SDS011;11591;44.792;10.358;2023-06-22T16:47:26;14.88;;;8.00;;
22849;SDS011;11591;44.792;10.358;2023-06-22T16:49:53;13.18;;;8.07;;
22849;SDS011;11591;44.792;10.358;2023-06-22T16:52:18;25.40;;;8.63;;
22849;SDS011;11591;44.792;10.358;2023-06-22T16:54:44;18.42;;;8.27;;
22849;SDS011;11591;44.792;10.358;2023-06-22T16:57:13;13.68;;;8.13;;
22849;SDS011;11591;44.792;10.358;2023-06-22T16:59:39;15.95;;;8.05;;
22849;SDS011;11591;44.792;10.358;2023-06-22T17:02:05;17.88;;;8.77;;
22849;SDS011;11591;44.792;10.358;2023-06-22T17:04:40;16.98;;;8.10;;
22849;SDS011;11591;44.792;10.358;2023-06-22T17:07:11;15.38;;;8.15;;
22849;SDS011;11591;44.792;10.358;2023-06-22T17:09:39;18.92;;;7.60;;
22849;SDS011;11591;44.792;10.358;2023-06-22T17:12:07;18.20;;;8.73;;
22849;SDS011;11591;44.792;10.358;2023-06-22T17:14:34;21.88;;;9.30;;
22849;SDS011;11591;44.792;10.358;2023-06-22T17:17:00;15.95;;;8.30;;
22849;SDS011;11591;44.792;10.358;2023-06-22T17:19:28;16.98;;;8.82;;
22849;SDS011;11591;44.792;10.358;2023-06-22T17:21:54;16.63;;;8.70;;
22849;SDS011;11591;44.792;10.358;2023-06-22T17:24:20;20.80;;;8.60;;
22849;SDS011;11591;44.792;10.358;2023-06-22T17:26:48;19.63;;;8.20;;
22849;SDS011;11591;44.792;10.358;2023-06-22T17:29:16;21.50;;;9.50;;
22849;SDS011;11591;44.792;10.358;2023-06-22T17:31:42;19.40;;;7.97;;
22849;SDS011;11591;44.792;10.358;2023-06-22T17:34:15;16.75;;;8.45;;
22849;SDS011;11591;44.792;10.358;2023-06-22T17:36:45;15.73;;;8.05;;
22849;SDS011;11591;44.792;10.358;2023-06-22T17:39:13;16.27;;;9.00;;
22849;SDS011;11591;44.792;10.358;2023-06-22T17:41:43;19.10;;;9.55;;
22849;SDS011;11591;44.792;10.358;2023-06-22T17:44:11;18.55;;;9.02;;
22849;SDS011;11591;44.792;10.358;2023-06-22T17:46:39;18.95;;;9.25;;
22849;SDS011;11591;44.792;10.358;2023-06-22T17:49:11;24.27;;;9.18;;
22849;SDS011;11591;44.792;10.358;2023-06-22T17:51:40;16.20;;;9.27;;
22849;SDS011;11591;44.792;10.358;2023-06-22T17:54:07;23.63;;;9.25;;
22849;SDS011;11591;44.792;10.358;2023-06-22T17:56:33;22.10;;;9.70;;
22849;SDS011;11591;44.792;10.358;2023-06-22T17:59:00;18.30;;;9.68;;
22849;SDS011;11591;44.792;10.358;2023-06-22T18:01:30;23.48;;;9.35;;
22849;SDS011;11591;44.792;10.358;2023-06-22T18:04:00;21.42;;;9.30;;
22849;SDS011;11591;44.792;10.358;2023-06-22T18:06:36;16.83;;;9.23;;
22849;SDS011;11591;44.792;10.358;2023-06-22T18:09:04;25.65;;;9.68;;
22849;SDS011;11591;44.792;10.358;2023-06-22T18:11:32;16.75;;;9.88;;
22849;SDS011;11591;44.792;10.358;2023-06-22T18:14:18;25.10;;;9.57;;
22849;SDS011;11591;44.792;10.358;2023-06-22T18:16:45;15.70;;;9.05;;
22849;SDS011;11591;44.792;10.358;2023-06-22T18:19:13;22.45;;;9.23;;
22849;SDS011;11591;44.792;10.358;2023-06-22T18:21:40;21.73;;;9.27;;
22849;SDS011;11591;44.792;10.358;2023-06-22T18:24:06;25.30;;;9.80;;
22849;SDS011;11591;44.792;10.358;2023-06-22T18:26:34;20.90;;;8.52;;
22849;SDS011;11591;44.792;10.358;2023-06-22T18:29:01;22.42;;;9.35;;